Farndon, United Kingdom
Current Conditions -  °F | °C
As of 10:50 AM on Wednesday 26 Nov 2014 (Local Time) from EGYD Reporting Station
Light Rain Light Rain  
Wind Chill: 40°   Ceiling: 2300
Heat Index: 45°   Visibility: 4mi
Dew Point: 45°   Wind: 9mph
Humidity: 100%   Direction: 80°E
Pressure: 29.88"   Gusts: NA
Location:  53.05°N, 0.85°W
Report Text: EGYD 261050Z 08008KT 6000 -RA FEW017 OVC023 07/07 Q1012 WHT BECMG 3000 -DZ BKN004 YLO2
Loading
Personal Weather Stations






























Interactive Weather Map New forecast layout! Learn more

10-Day Weather Forecast

Advertisements
Track Severe Weather on mobile